Time;durP1;ratioP1;P1;durP2;ratioP2;P2;SDS_P1;SDS_P2;PMS_P1;PMS_P2;Temp;Humidity;BMP_temperature;BMP_pressure;BME280_temperature;BME280_humidity;BME280_pressure;Samples;Min_cycle;Max_cycle;Signal;HPM_P1;HPM_P2
2022/05/24 00:01:30;;;;;;;0.00;0.00;;;17.00;99.90;;;;;;5051653;28;20056;-77
2022/05/24 00:03:56;;;;;;;0.00;0.00;;;17.00;99.90;;;;;;5034406;28;20053;-76
2022/05/24 00:06:25;;;;;;;0.00;0.00;;;17.00;99.90;;;;;;5051810;28;20364;-76
2022/05/24 00:08:51;;;;;;;0.00;0.00;;;17.00;99.90;;;;;;5051856;28;20029;-77
2022/05/24 00:11:17;;;;;;;0.00;0.00;;;17.00;99.90;;;;;;5051919;28;20468;-76
2022/05/24 00:13:43;;;;;;;0.00;0.00;;;17.00;99.90;;;;;;5051741;28;20681;-76
2022/05/24 00:16:09;;;;;;;0.00;0.00;;;17.10;99.90;;;;;;5017597;28;20052;-76
2022/05/24 00:18:35;;;;;;;0.00;0.00;;;17.10;99.90;;;;;;5051664;28;20035;-76
2022/05/24 00:21:04;;;;;;;0.00;0.00;;;17.10;99.90;;;;;;5051860;28;20447;-76
2022/05/24 00:23:31;;;;;;;0.00;0.00;;;17.20;99.90;;;;;;5051790;28;20433;-76
2022/05/24 00:26:02;;;;;;;0.00;0.00;;;17.20;99.90;;;;;;5051802;28;20108;-76
2022/05/24 00:28:30;;;;;;;0.00;0.00;;;17.20;99.90;;;;;;5051614;28;20551;-76
2022/05/24 00:30:57;;;;;;;0.00;0.00;;;17.30;99.90;;;;;;5051734;28;20025;-76
2022/05/24 00:33:23;;;;;;;0.00;0.00;;;17.30;99.90;;;;;;5033778;28;20025;-76
2022/05/24 00:35:49;;;;;;;0.00;0.00;;;17.40;99.90;;;;;;5051620;28;20377;-76
2022/05/24 00:38:41;;;;;;;0.00;0.00;;;17.40;99.90;;;;;;5051386;28;20021;-76
2022/05/24 00:41:24;;;;;;;0.00;0.00;;;17.40;99.90;;;;;;5049962;28;20029;-76
2022/05/24 00:44:06;;;;;;;0.00;0.00;;;17.50;99.90;;;;;;5034001;28;20025;-76
2022/05/24 00:46:46;;;;;;;0.00;0.00;;;17.50;99.90;;;;;;5051555;28;20024;-76
2022/05/24 00:49:17;;;;;;;0.00;0.00;;;17.40;99.90;;;;;;5051486;28;20375;-76
2022/05/24 00:51:51;;;;;;;0.00;0.00;;;17.40;99.90;;;;;;5033616;28;20112;-76
2022/05/24 00:54:16;;;;;;;0.00;0.00;;;17.30;99.90;;;;;;5051548;28;20021;-76
2022/05/24 00:56:54;;;;;;;0.00;0.00;;;17.20;99.90;;;;;;5066697;28;20391;-76
2022/05/24 00:59:29;;;;;;;0.00;0.00;;;16.90;99.90;;;;;;5033505;28;20104;-75
2022/05/24 01:01:55;;;;;;;0.00;0.00;;;16.70;99.90;;;;;;5050291;28;20032;-76
2022/05/24 01:04:21;;;;;;;0.00;0.00;;;16.70;99.90;;;;;;5033513;28;20021;-76
2022/05/24 01:06:50;;;;;;;0.03;0.03;;;16.80;99.90;;;;;;5051170;28;20357;-76
2022/05/24 01:09:25;;;;;;;0.00;0.00;;;16.70;99.90;;;;;;5051461;28;20025;-76
2022/05/24 01:11:57;;;;;;;0.00;0.00;;;16.60;99.90;;;;;;5017304;28;20025;-77
2022/05/24 01:17:02;;;;;;;0.08;0.08;;;16.70;99.90;;;;;;5033108;28;20579;-71
2022/05/24 01:19:43;;;;;;;0.00;0.00;;;16.70;99.90;;;;;;5035108;28;20100;-74
2022/05/24 01:22:38;;;;;;;0.00;0.00;;;16.80;99.90;;;;;;5035020;28;20018;-72
2022/05/24 01:25:16;;;;;;;0.00;0.00;;;16.80;99.90;;;;;;5017738;28;20084;-72
2022/05/24 01:27:42;;;;;;;0.00;0.00;;;16.70;99.90;;;;;;5017012;28;20088;-71
2022/05/24 01:30:09;;;;;;;0.00;0.00;;;16.70;99.90;;;;;;5017237;28;20025;-71
2022/05/24 01:38:12;;;;;;;0.10;0.10;;;16.70;99.90;;;;;;5034330;28;20516;-71
2022/05/24 01:40:38;;;;;;;0.00;0.00;;;16.50;99.90;;;;;;5034756;28;20485;-71
2022/05/24 01:43:05;;;;;;;0.00;0.00;;;16.30;99.90;;;;;;5034671;28;20021;-71
2022/05/24 01:45:39;;;;;;;5.18;0.10;;;16.30;99.90;;;;;;5034603;28;20041;-71
2022/05/24 01:48:14;;;;;;;0.00;0.00;;;16.40;99.90;;;;;;5016567;28;20029;-72
2022/05/24 01:50:42;;;;;;;0.20;0.20;;;16.30;99.90;;;;;;5016762;28;20021;-71
2022/05/24 01:53:16;;;;;;;0.10;0.10;;;16.30;99.90;;;;;;5016690;28;20022;-71
2022/05/24 01:55:48;;;;;;;0.13;0.13;;;16.10;99.90;;;;;;5034480;28;20477;-71
2022/05/24 01:58:17;;;;;;;0.20;0.20;;;16.10;99.90;;;;;;5034004;28;20072;-72
2022/05/24 02:00:52;;;;;;;0.00;0.00;;;16.10;99.90;;;;;;5034302;28;20082;-73
2022/05/24 02:03:18;;;;;;;0.00;0.00;;;16.10;99.90;;;;;;5016679;28;20439;-71
2022/05/24 02:05:44;;;;;;;0.45;0.20;;;16.00;99.90;;;;;;5034220;28;20025;-71
2022/05/24 02:08:12;;;;;;;0.00;0.00;;;16.00;99.90;;;;;;5033985;28;20495;-73
2022/05/24 02:10:46;;;;;;;0.00;0.00;;;15.90;99.90;;;;;;5034160;28;20072;-71
2022/05/24 02:13:16;;;;;;;0.00;0.00;;;15.90;99.90;;;;;;5034068;28;20025;-71
2022/05/24 02:15:47;;;;;;;0.00;0.00;;;16.00;99.90;;;;;;5033902;28;20033;-71
2022/05/24 02:18:21;;;;;;;0.00;0.00;;;16.10;99.90;;;;;;5033763;28;20026;-71
2022/05/24 02:20:47;;;;;;;0.47;0.47;;;16.20;99.90;;;;;;5016239;28;20531;-71
2022/05/24 02:23:16;;;;;;;0.00;0.00;;;16.20;99.90;;;;;;5033914;28;20025;-71
2022/05/24 02:25:54;;;;;;;0.10;0.10;;;16.30;99.90;;;;;;5033450;28;20075;-73
2022/05/24 02:28:23;;;;;;;0.00;0.00;;;16.30;99.90;;;;;;5033721;28;20105;-71
2022/05/24 02:30:56;;;;;;;0.00;0.00;;;16.20;99.90;;;;;;5033902;28;20417;-71
2022/05/24 02:33:23;;;;;;;0.00;0.00;;;16.20;99.90;;;;;;5033906;28;20025;-71
2022/05/24 02:35:49;;;;;;;0.00;0.00;;;16.20;99.90;;;;;;5015832;28;20087;-71
2022/05/24 02:38:17;;;;;;;0.00;0.00;;;16.10;99.90;;;;;;5033310;28;20025;-71
2022/05/24 02:43:27;;;;;;;0.10;0.10;;;16.30;99.90;;;;;;5033566;28;20469;-71
2022/05/24 02:45:53;;;;;;;0.00;0.00;;;16.30;99.90;;;;;;5033487;28;20029;-71
2022/05/24 02:48:19;;;;;;;0.00;0.00;;;16.30;99.90;;;;;;5015503;28;20034;-71
2022/05/24 02:50:45;;;;;;;0.10;0.10;;;16.40;99.90;;;;;;5033426;28;20021;-71
2022/05/24 02:53:11;;;;;;;0.00;0.00;;;16.50;99.90;;;;;;5015715;28;20029;-73
2022/05/24 02:55:37;;;;;;;0.00;0.00;;;16.40;99.90;;;;;;5033406;28;20024;-73
2022/05/24 02:58:03;;;;;;;0.00;0.00;;;16.40;99.90;;;;;;5032941;28;20052;-71
2022/05/24 03:00:30;;;;;;;0.00;0.00;;;16.30;99.90;;;;;;5033185;28;20140;-71
2022/05/24 03:02:56;;;;;;;0.00;0.00;;;16.30;99.90;;;;;;5033060;28;20477;-71
2022/05/24 03:05:23;;;;;;;0.00;0.00;;;16.40;99.90;;;;;;5033178;28;20105;-71
2022/05/24 03:10:34;;;;;;;0.00;0.00;;;16.60;99.90;;;;;;5033161;28;20391;-71
2022/05/24 03:15:45;;;;;;;0.00;0.00;;;16.90;99.90;;;;;;5015056;28;20037;-71
2022/05/24 03:18:13;;;;;;;0.00;0.00;;;17.00;99.90;;;;;;5032508;28;20076;-72
2022/05/24 03:20:41;;;;;;;0.00;0.00;;;17.10;99.90;;;;;;5015244;28;20132;-73
2022/05/24 03:23:07;;;;;;;0.30;0.30;;;17.00;99.90;;;;;;5032836;28;20025;-71
2022/05/24 03:25:33;;;;;;;0.00;0.00;;;17.00;99.90;;;;;;5014980;28;20091;-71
2022/05/24 03:28:00;;;;;;;1.85;0.20;;;16.80;99.90;;;;;;5032332;28;20137;-73
2022/05/24 03:30:27;;;;;;;0.00;0.00;;;16.70;99.90;;;;;;5015078;28;20534;-72
2022/05/24 03:32:53;;;;;;;0.00;0.00;;;16.70;99.90;;;;;;5014886;28;20049;-72
2022/05/24 03:35:19;;;;;;;0.00;0.00;;;16.70;99.90;;;;;;5032095;28;20362;-71
2022/05/24 03:37:45;;;;;;;0.00;0.00;;;16.60;99.90;;;;;;5031807;28;20267;-71
2022/05/24 03:40:11;;;;;;;0.00;0.00;;;16.60;99.90;;;;;;5032462;28;20034;-72
2022/05/24 03:42:38;;;;;;;0.00;0.00;;;16.70;99.90;;;;;;5014961;28;20072;-72
2022/05/24 03:45:06;;;;;;;0.00;0.00;;;16.90;99.90;;;;;;5014761;28;20048;-73
2022/05/24 03:47:32;;;;;;;0.00;0.00;;;16.80;99.90;;;;;;5014534;28;20389;-71
2022/05/24 03:49:58;;;;;;;0.00;0.00;;;16.90;99.90;;;;;;5032450;28;20037;-72
2022/05/24 03:52:24;;;;;;;0.00;0.00;;;16.90;99.90;;;;;;5032422;28;20025;-72
2022/05/24 03:54:50;;;;;;;0.00;0.00;;;16.90;99.90;;;;;;5014652;28;20029;-72
2022/05/24 04:00:00;;;;;;;0.00;0.00;;;17.00;99.90;;;;;;5032165;28;20105;-72
2022/05/24 04:02:26;;;;;;;0.00;0.00;;;17.00;99.90;;;;;;5032031;28;20033;-72
2022/05/24 04:04:51;;;;;;;0.00;0.00;;;17.10;99.90;;;;;;5032152;28;20370;-71
2022/05/24 04:07:17;;;;;;;0.00;0.00;;;16.90;99.90;;;;;;5031832;28;20473;-71
2022/05/24 04:09:43;;;;;;;0.00;0.00;;;16.90;99.90;;;;;;5032085;28;20036;-71
2022/05/24 04:12:09;;;;;;;0.00;0.00;;;16.70;99.90;;;;;;5032087;28;20038;-71
2022/05/24 04:14:35;;;;;;;0.00;0.00;;;16.60;99.90;;;;;;5032133;28;20033;-72
2022/05/24 04:17:01;;;;;;;0.00;0.00;;;16.60;99.90;;;;;;5031697;28;20044;-72
2022/05/24 04:19:27;;;;;;;0.00;0.00;;;16.70;99.90;;;;;;5014209;28;20025;-72
2022/05/24 04:21:53;;;;;;;0.00;0.00;;;16.70;99.90;;;;;;5031926;28;20366;-72
2022/05/24 04:24:19;;;;;;;0.00;0.00;;;16.70;99.90;;;;;;5031936;28;20075;-72
2022/05/24 04:26:45;;;;;;;0.00;0.00;;;16.80;99.90;;;;;;5031706;28;20029;-71
2022/05/24 04:29:12;;;;;;;0.00;0.00;;;16.70;99.90;;;;;;5014360;28;20544;-72
2022/05/24 04:31:39;;;;;;;0.00;0.00;;;16.70;99.90;;;;;;5031803;28;20079;-72
2022/05/24 04:34:05;;;;;;;0.00;0.00;;;16.70;99.90;;;;;;5014073;28;20025;-72
2022/05/24 04:36:31;;;;;;;0.00;0.00;;;16.80;99.90;;;;;;5031674;28;20032;-72
2022/05/24 04:38:58;;;;;;;0.00;0.00;;;16.70;99.90;;;;;;5013836;28;20034;-72
2022/05/24 04:44:08;;;;;;;0.00;0.00;;;16.80;99.90;;;;;;5031754;28;20025;-72
2022/05/24 04:49:20;;;;;;;0.00;0.00;;;16.70;99.90;;;;;;5035893;28;20495;-72
2022/05/24 04:51:46;;;;;;;0.00;0.00;;;16.70;99.90;;;;;;5035691;28;20057;-72
2022/05/24 04:54:12;;;;;;;0.00;0.00;;;16.70;99.90;;;;;;5035523;28;20068;-72
2022/05/24 04:56:37;;;;;;;0.00;0.00;;;16.80;99.90;;;;;;5035325;28;20033;-72
2022/05/24 04:59:03;;;;;;;0.00;0.00;;;16.90;99.90;;;;;;5035330;28;20021;-72
2022/05/24 05:01:29;;;;;;;0.00;0.00;;;16.90;99.90;;;;;;5017913;28;20360;-72
2022/05/24 05:03:55;;;;;;;0.00;0.00;;;17.00;99.90;;;;;;5035441;28;20025;-73
2022/05/24 05:06:20;;;;;;;0.10;0.10;;;16.80;99.90;;;;;;5034167;28;20025;-72
2022/05/24 05:08:46;;;;;;;0.00;0.00;;;16.70;99.90;;;;;;5048433;28;20029;-72
2022/05/24 05:11:12;;;;;;;0.00;0.00;;;16.80;99.90;;;;;;5055084;28;20078;-72
2022/05/24 05:13:38;;;;;;;0.00;0.00;;;16.90;99.90;;;;;;5037330;28;20029;-72
2022/05/24 05:16:04;;;;;;;0.00;0.00;;;16.90;99.90;;;;;;5054939;28;20033;-72
2022/05/24 05:18:30;;;;;;;0.10;0.10;;;16.80;99.90;;;;;;5054669;28;20017;-72
2022/05/24 05:20:56;;;;;;;0.00;0.00;;;17.00;99.90;;;;;;5055012;28;20029;-72
2022/05/24 05:23:22;;;;;;;0.00;0.00;;;16.90;99.90;;;;;;5054465;28;20021;-73
2022/05/24 05:25:47;;;;;;;0.00;0.00;;;16.80;99.90;;;;;;5054831;28;20025;-73
2022/05/24 05:28:15;;;;;;;0.00;0.00;;;16.90;99.90;;;;;;5054483;28;20043;-74
2022/05/24 05:33:25;;;;;;;0.00;0.00;;;16.90;99.90;;;;;;5030730;28;20516;-72
2022/05/24 05:35:51;;;;;;;0.00;0.00;;;17.00;99.90;;;;;;5047076;28;20034;-72
2022/05/24 05:38:18;;;;;;;0.00;0.00;;;16.90;99.90;;;;;;5039566;28;20390;-72
2022/05/24 05:40:44;;;;;;;0.00;0.00;;;16.90;99.90;;;;;;5044895;28;20024;-74
2022/05/24 05:43:10;;;;;;;0.00;0.00;;;17.00;99.90;;;;;;5017773;28;20033;-73
2022/05/24 05:45:36;;;;;;;0.00;0.00;;;17.00;99.90;;;;;;5038972;28;20021;-73
2022/05/24 05:48:03;;;;;;;0.00;0.00;;;16.80;99.90;;;;;;5036320;28;20028;-72
2022/05/24 05:50:28;;;;;;;0.00;0.00;;;16.80;99.90;;;;;;5033604;28;20384;-72
2022/05/24 05:52:55;;;;;;;0.00;0.00;;;16.90;99.90;;;;;;5016472;28;20055;-73
2022/05/24 05:55:21;;;;;;;0.00;0.00;;;16.90;99.90;;;;;;5033476;28;20103;-72
2022/05/24 05:57:47;;;;;;;0.00;0.00;;;16.90;99.90;;;;;;5033864;28;20018;-73
2022/05/24 06:00:14;;;;;;;0.00;0.00;;;16.90;99.90;;;;;;5032798;28;20022;-73
2022/05/24 06:02:39;;;;;;;0.00;0.00;;;16.90;99.90;;;;;;5033957;28;20013;-72
2022/05/24 06:05:06;;;;;;;0.00;0.00;;;17.00;99.90;;;;;;5033677;28;20499;-73
2022/05/24 06:07:32;;;;;;;0.00;0.00;;;17.00;99.90;;;;;;5032922;28;20018;-73
2022/05/24 06:09:58;;;;;;;0.45;0.20;;;17.10;99.90;;;;;;5033286;28;20036;-73
2022/05/24 06:12:25;;;;;;;0.00;0.00;;;17.00;99.90;;;;;;5020959;28;20397;-72
2022/05/24 06:14:51;;;;;;;0.05;0.05;;;17.00;99.90;;;;;;5022495;28;20116;-72
2022/05/24 06:17:18;;;;;;;0.00;0.00;;;17.00;99.90;;;;;;5033547;28;20545;-73
2022/05/24 06:19:44;;;;;;;0.10;0.10;;;17.10;99.90;;;;;;5033538;28;20535;-72
2022/05/24 06:22:10;;;;;;;0.00;0.00;;;17.10;99.90;;;;;;5033207;28;20030;-73
2022/05/24 06:24:37;;;;;;;0.00;0.00;;;17.00;99.90;;;;;;5034261;28;20481;-73
2022/05/24 06:27:04;;;;;;;0.00;0.00;;;17.20;99.90;;;;;;5033380;28;20045;-73
2022/05/24 06:29:33;;;;;;;0.00;0.00;;;17.40;99.90;;;;;;5033627;28;20041;-72
2022/05/24 06:32:01;;;;;;;0.00;0.00;;;17.30;99.90;;;;;;5033022;28;20108;-73
2022/05/24 06:34:29;;;;;;;0.05;0.05;;;17.10;99.90;;;;;;5033564;28;20113;-72
2022/05/24 06:36:56;;;;;;;0.15;0.15;;;17.10;99.90;;;;;;5032084;28;20022;-73
2022/05/24 06:39:23;;;;;;;0.00;0.00;;;17.10;99.90;;;;;;5032965;28;20064;-72
2022/05/24 06:41:48;;;;;;;0.00;0.00;;;17.10;99.90;;;;;;5032476;28;20018;-72
2022/05/24 06:44:14;;;;;;;0.00;0.00;;;17.00;99.90;;;;;;5033158;28;20496;-72
2022/05/24 06:46:40;;;;;;;0.00;0.00;;;16.80;99.90;;;;;;5035036;28;20036;-72
2022/05/24 06:49:07;;;;;;;0.00;0.00;;;17.00;99.90;;;;;;5032966;28;20492;-72
2022/05/24 06:51:33;;;;;;;0.10;0.10;;;17.10;99.90;;;;;;5032967;28;20151;-72
2022/05/24 06:53:59;;;;;;;0.00;0.00;;;17.00;99.90;;;;;;5048438;28;20037;-72
2022/05/24 06:56:24;;;;;;;0.00;0.00;;;17.00;99.90;;;;;;5032519;28;20030;-72
2022/05/24 07:02:24;;;;;;;0.57;0.08;;;16.90;99.90;;;;;;5032047;28;20052;-75
2022/05/24 07:04:20;;;;;;;0.08;0.08;;;17.00;99.90;;;;;;5032544;28;20021;-72
2022/05/24 07:06:46;;;;;;;0.00;0.00;;;17.10;99.90;;;;;;5031159;28;20032;-73
2022/05/24 07:09:12;;;;;;;0.00;0.00;;;17.20;99.90;;;;;;5030854;28;20105;-73
2022/05/24 07:11:37;;;;;;;0.10;0.10;;;17.30;99.90;;;;;;5031890;28;20032;-73
2022/05/24 07:14:03;;;;;;;0.00;0.00;;;17.20;99.90;;;;;;5032468;28;20029;-72
2022/05/24 07:16:29;;;;;;;0.90;0.40;;;17.00;99.90;;;;;;5111606;23;20382;-78
2022/05/24 07:18:55;;;;;;;0.00;0.00;;;16.90;99.90;;;;;;5052102;28;20108;-78
2022/05/24 07:21:20;;;;;;;0.00;0.00;;;16.90;99.90;;;;;;5019475;28;20574;-77
2022/05/24 07:23:46;;;;;;;0.00;0.00;;;16.90;99.90;;;;;;5034968;28;20025;-78
2022/05/24 07:26:18;;;;;;;0.00;0.00;;;16.70;99.90;;;;;;5050795;28;20024;-77
2022/05/24 07:28:45;;;;;;;0.00;0.00;;;16.70;99.90;;;;;;5053585;28;20073;-78
2022/05/24 07:31:11;;;;;;;0.00;0.00;;;16.80;99.90;;;;;;5043561;28;20048;-77
2022/05/24 07:33:37;;;;;;;0.10;0.10;;;16.90;99.90;;;;;;5030949;28;20035;-78
2022/05/24 07:36:06;;;;;;;0.43;0.20;;;16.80;99.90;;;;;;5029677;28;20033;-77
2022/05/24 07:38:32;;;;;;;0.00;0.00;;;16.70;99.90;;;;;;5040675;28;20068;-78
2022/05/24 07:46:28;;;;;;;0.10;0.10;;;16.50;99.90;;;;;;5041080;28;20512;-78
2022/05/24 07:48:54;;;;;;;0.95;0.40;;;16.40;99.90;;;;;;5030898;28;20507;-78
2022/05/24 07:51:20;;;;;;;1.35;0.22;;;16.30;99.90;;;;;;5040413;28;20626;-78
2022/05/24 07:53:46;;;;;;;0.10;0.10;;;16.10;99.90;;;;;;5030054;28;20143;-78
2022/05/24 07:56:15;;;;;;;0.40;0.40;;;16.20;99.90;;;;;;5040052;28;20067;-78
2022/05/24 07:58:45;;;;;;;0.10;0.10;;;16.20;99.90;;;;;;5040383;28;20024;-78
2022/05/24 08:01:11;;;;;;;0.00;0.00;;;16.20;99.90;;;;;;5031636;28;20048;-78
2022/05/24 08:03:38;;;;;;;0.00;0.00;;;16.40;99.90;;;;;;5031717;28;20071;-78
2022/05/24 08:06:05;;;;;;;0.00;0.00;;;16.30;99.90;;;;;;5030006;28;20163;-78
2022/05/24 08:08:31;;;;;;;0.00;0.00;;;16.30;99.90;;;;;;5014212;28;20033;-78
2022/05/24 08:10:57;;;;;;;0.55;0.55;;;16.30;99.90;;;;;;5029174;28;20029;-78
2022/05/24 08:13:23;;;;;;;0.10;0.10;;;16.20;99.90;;;;;;5013696;28;20676;-78
2022/05/24 08:15:53;;;;;;;0.00;0.00;;;16.30;99.90;;;;;;5040300;28;20040;-78
2022/05/24 08:18:21;;;;;;;0.75;0.68;;;16.30;99.90;;;;;;5039827;28;20025;-78
2022/05/24 08:20:47;;;;;;;0.10;0.10;;;16.30;99.90;;;;;;5040750;28;20127;-77
2022/05/24 08:23:13;;;;;;;0.00;0.00;;;16.30;99.90;;;;;;5013723;28;20064;-78
2022/05/24 08:25:39;;;;;;;0.65;0.65;;;16.40;99.90;;;;;;5040264;28;20036;-78
2022/05/24 08:28:07;;;;;;;0.00;0.00;;;16.60;99.90;;;;;;5040423;28;20489;-78
2022/05/24 08:30:35;;;;;;;0.00;0.00;;;16.50;99.90;;;;;;5040248;28;20037;-78
2022/05/24 08:33:04;;;;;;;0.00;0.00;;;16.40;99.90;;;;;;5012475;28;20033;-74
2022/05/24 08:35:32;;;;;;;0.00;0.00;;;16.10;99.90;;;;;;5039696;28;20420;-74
2022/05/24 08:37:59;;;;;;;5.82;0.63;;;16.20;99.90;;;;;;5028567;28;20039;-74
2022/05/24 08:40:25;;;;;;;0.00;0.00;;;16.40;99.90;;;;;;5029088;28;20515;-74
2022/05/24 08:43:06;;;;;;;0.00;0.00;;;16.40;99.90;;;;;;5030199;28;20389;-76
2022/05/24 08:48:36;;;;;;;0.00;0.00;;;16.20;99.90;;;;;;5039401;28;20456;-75
2022/05/24 08:51:02;;;;;;;0.57;0.52;;;16.20;99.90;;;;;;5029362;28;20159;-75
2022/05/24 08:53:46;;;;;;;0.28;0.28;;;15.90;99.90;;;;;;5039791;28;20416;-75
2022/05/24 08:56:25;;;;;;;0.00;0.00;;;15.90;99.90;;;;;;5039871;28;20070;-75
2022/05/24 08:58:58;;;;;;;0.20;0.20;;;16.00;99.90;;;;;;5029302;28;20068;-75
2022/05/24 09:01:27;;;;;;;0.03;0.03;;;15.80;99.90;;;;;;5039759;28;20039;-74
2022/05/24 09:03:54;;;;;;;0.00;0.00;;;15.70;99.90;;;;;;5028978;28;20039;-75
2022/05/24 09:06:47;;;;;;;0.10;0.10;;;15.50;99.90;;;;;;5029742;28;20032;-75
2022/05/24 09:09:24;;;;;;;0.10;0.10;;;15.60;99.90;;;;;;5029440;28;20108;-75
2022/05/24 09:12:15;;;;;;;0.10;0.10;;;15.50;99.90;;;;;;5040271;28;20527;-75
2022/05/24 09:14:41;;;;;;;0.10;0.10;;;15.50;99.90;;;;;;5029131;28;20055;-75
2022/05/24 09:17:27;;;;;;;0.00;0.00;;;15.60;99.90;;;;;;5040096;28;20431;-75
2022/05/24 09:19:53;;;;;;;0.00;0.00;;;15.60;99.90;;;;;;5039391;28;20037;-75
2022/05/24 09:22:21;;;;;;;0.00;0.00;;;15.80;99.90;;;;;;5040721;28;20035;-75
2022/05/24 09:24:52;;;;;;;0.30;0.30;;;15.90;99.90;;;;;;5038326;28;20029;-75
2022/05/24 09:27:22;;;;;;;0.03;0.03;;;15.80;99.90;;;;;;5040232;28;20025;-75
2022/05/24 09:30:04;;;;;;;0.35;0.35;;;15.60;99.90;;;;;;5038368;28;20045;-75
2022/05/24 09:32:37;;;;;;;0.40;0.40;;;15.50;99.90;;;;;;5030203;28;20404;-75
2022/05/24 09:35:08;;;;;;;0.00;0.00;;;15.60;99.90;;;;;;5032731;28;20036;-75
2022/05/24 09:37:35;;;;;;;0.00;0.00;;;15.60;99.90;;;;;;5043774;28;20071;-75
2022/05/24 09:40:18;;;;;;;0.00;0.00;;;15.70;99.90;;;;;;5042123;28;20048;-75
2022/05/24 09:42:45;;;;;;;0.10;0.10;;;15.60;99.90;;;;;;5032670;28;20025;-75
2022/05/24 09:45:23;;;;;;;0.95;0.93;;;15.70;99.90;;;;;;5042058;28;20496;-75
2022/05/24 09:47:59;;;;;;;0.00;0.00;;;15.80;99.90;;;;;;5033205;28;20550;-75
2022/05/24 09:50:33;;;;;;;0.00;0.00;;;15.90;99.90;;;;;;5042921;28;20029;-75
2022/05/24 09:53:19;;;;;;;0.00;0.00;;;15.80;99.90;;;;;;5043190;28;20041;-75
2022/05/24 09:55:52;;;;;;;0.20;0.20;;;15.70;99.90;;;;;;5033624;28;20052;-75
2022/05/24 09:58:39;;;;;;;0.10;0.10;;;15.60;99.90;;;;;;5042233;28;20021;-75
2022/05/24 10:01:09;;;;;;;3.28;1.05;;;15.50;99.90;;;;;;5042126;28;20025;-74
2022/05/24 10:03:36;;;;;;;0.17;0.17;;;15.40;99.90;;;;;;5043454;28;20043;-74
2022/05/24 10:06:20;;;;;;;0.10;0.10;;;15.40;99.90;;;;;;5042814;28;20104;-74
2022/05/24 10:09:00;;;;;;;0.20;0.15;;;15.40;99.90;;;;;;5031110;28;20033;-74
2022/05/24 10:11:40;;;;;;;0.10;0.10;;;15.40;99.90;;;;;;5043244;28;20033;-74
2022/05/24 10:14:30;;;;;;;0.15;0.15;;;15.40;99.90;;;;;;5017655;28;20051;-74
2022/05/24 10:17:09;;;;;;;0.20;0.20;;;15.40;99.90;;;;;;5032758;28;20070;-74
2022/05/24 10:19:58;;;;;;;0.60;0.30;;;15.40;99.90;;;;;;5016292;28;20040;-74
2022/05/24 10:22:57;;;;;;;0.00;0.00;;;15.40;99.90;;;;;;5042440;28;20095;-74
2022/05/24 10:25:32;;;;;;;0.10;0.10;;;15.30;99.90;;;;;;5041533;28;20152;-74
2022/05/24 10:28:17;;;;;;;0.10;0.10;;;15.10;99.90;;;;;;5030159;28;20036;-74
2022/05/24 10:30:58;;;;;;;0.30;0.30;;;15.30;99.90;;;;;;5032088;28;20489;-74
2022/05/24 10:39:53;;;;;;;0.82;0.40;;;15.30;99.90;;;;;;5008384;28;20041;-74
2022/05/24 10:42:57;;;;;;;2.63;0.82;;;15.30;99.90;;;;;;5040900;28;20336;-74
2022/05/24 10:45:52;;;;;;;1.95;0.80;;;15.30;99.90;;;;;;5040453;28;20153;-74
2022/05/24 10:48:48;;;;;;;0.10;0.10;;;15.40;99.90;;;;;;5041343;28;20036;-74
2022/05/24 10:51:24;;;;;;;0.10;0.10;;;15.40;99.90;;;;;;5041056;28;20029;-74
2022/05/24 10:54:16;;;;;;;0.35;0.35;;;15.50;99.90;;;;;;5030411;28;20029;-74
2022/05/24 10:57:04;;;;;;;0.30;0.15;;;15.50;99.90;;;;;;5040223;28;20064;-74
2022/05/24 10:59:46;;;;;;;0.08;0.08;;;15.50;99.90;;;;;;5040496;28;20045;-74
2022/05/24 11:02:25;;;;;;;0.10;0.10;;;15.50;99.90;;;;;;5031496;28;20033;-74
2022/05/24 11:05:18;;;;;;;0.10;0.10;;;15.60;99.90;;;;;;5041182;28;20805;-74
2022/05/24 11:07:48;;;;;;;0.10;0.10;;;15.60;99.90;;;;;;5029906;28;20399;-74
2022/05/24 11:10:33;;;;;;;0.20;0.20;;;15.70;99.90;;;;;;5040740;28;20456;-74
2022/05/24 11:13:09;;;;;;;0.20;0.20;;;15.60;99.90;;;;;;5041258;28;20029;-74
2022/05/24 11:15:57;;;;;;;0.10;0.10;;;15.70;99.90;;;;;;5014022;28;20048;-74
2022/05/24 11:18:25;;;;;;;0.00;0.00;;;15.50;99.90;;;;;;5041326;28;20033;-74
2022/05/24 11:21:14;;;;;;;0.28;0.28;;;15.60;99.90;;;;;;5031260;28;20097;-74
2022/05/24 11:23:51;;;;;;;0.10;0.10;;;15.60;99.90;;;;;;5019310;28;20048;-74
2022/05/24 11:26:24;;;;;;;0.20;0.20;;;15.60;99.90;;;;;;5040980;28;20395;-74
2022/05/24 11:29:12;;;;;;;0.20;0.20;;;16.00;99.90;;;;;;5040546;28;20052;-74
2022/05/24 11:31:44;;;;;;;0.08;0.08;;;15.70;99.90;;;;;;5039740;28;20059;-74
2022/05/24 11:34:50;;;;;;;0.10;0.10;;;15.40;99.90;;;;;;5029289;28;20065;-74
2022/05/24 11:37:19;;;;;;;0.10;0.10;;;15.50;99.90;;;;;;5017589;28;20123;-74
2022/05/24 11:39:46;;;;;;;0.40;0.20;;;15.50;99.90;;;;;;5040730;28;20471;-74
2022/05/24 11:42:21;;;;;;;0.03;0.03;;;15.70;99.90;;;;;;5030840;28;20029;-74
2022/05/24 11:44:49;;;;;;;0.00;0.00;;;15.90;99.90;;;;;;5040539;28;20454;-74
2022/05/24 11:47:39;;;;;;;0.10;0.10;;;16.10;99.90;;;;;;5031141;28;20031;-74
2022/05/24 11:50:08;;;;;;;0.55;0.10;;;16.30;99.90;;;;;;5029718;28;20492;-74
2022/05/24 11:52:43;;;;;;;4.47;2.35;;;16.00;99.90;;;;;;5039923;28;20036;-74
2022/05/24 11:55:09;;;;;;;0.30;0.30;;;15.90;99.90;;;;;;5039646;28;20040;-74
2022/05/24 11:57:41;;;;;;;0.20;0.20;;;16.00;99.90;;;;;;5039957;28;20025;-74
2022/05/24 12:00:08;;;;;;;;;;;15.70;99.90;;;;;;5030605;28;20032;-74
2022/05/24 12:07:54;;;;;;;0.00;0.00;;;15.70;99.90;;;;;;5030664;28;20334;-74
2022/05/24 12:08:30;;;;;;;0.00;0.00;;;15.60;99.90;;;;;;5039148;28;20098;-75
2022/05/24 12:11:05;;;;;;;0.20;0.20;;;15.90;99.90;;;;;;5039457;28;20036;-74
2022/05/24 12:13:40;;;;;;;0.20;0.20;;;15.70;99.90;;;;;;5040391;28;20497;-75
2022/05/24 12:16:32;;;;;;;0.30;0.20;;;15.40;99.90;;;;;;5040402;28;20045;-75
2022/05/24 12:19:00;;;;;;;0.32;0.32;;;15.30;99.90;;;;;;5013628;28;20033;-75
2022/05/24 12:21:57;;;;;;;0.10;0.10;;;15.30;99.90;;;;;;5039837;28;20111;-75
2022/05/24 12:24:23;;;;;;;2.08;0.40;;;15.20;99.90;;;;;;5039503;28;20036;-75
2022/05/24 12:27:20;;;;;;;0.17;0.17;;;15.20;99.90;;;;;;5012877;28;20040;-75
2022/05/24 12:30:17;;;;;;;0.00;0.00;;;15.10;99.90;;;;;;5039993;28;20142;-75
2022/05/24 12:32:44;;;;;;;0.00;0.00;;;15.20;99.90;;;;;;5028398;28;20416;-76
2022/05/24 12:35:12;;;;;;;1.63;0.22;;;15.30;99.90;;;;;;5030291;28;20585;-74
2022/05/24 12:37:53;;;;;;;0.00;0.00;;;15.50;99.90;;;;;;5030293;28;20125;-75
2022/05/24 12:40:25;;;;;;;0.10;0.10;;;15.50;99.90;;;;;;5039284;28;20033;-75
2022/05/24 12:42:54;;;;;;;0.38;0.38;;;15.10;99.90;;;;;;5028386;28;20075;-75
2022/05/24 12:45:38;;;;;;;0.75;0.60;;;15.00;99.90;;;;;;5039827;28;20033;-74
2022/05/24 12:48:24;;;;;;;0.00;0.00;;;14.90;99.90;;;;;;5037552;28;20027;-74
2022/05/24 12:50:58;;;;;;;0.10;0.10;;;14.70;99.90;;;;;;5029036;28;20435;-75
2022/05/24 12:53:24;;;;;;;0.00;0.00;;;14.70;99.90;;;;;;5028409;28;20037;-75
2022/05/24 12:56:08;;;;;;;0.45;0.45;;;14.90;99.90;;;;;;5039342;28;20035;-74
2022/05/24 12:58:34;;;;;;;0.00;0.00;;;15.00;99.90;;;;;;5013880;28;20043;-76
2022/05/24 13:01:31;;;;;;;0.00;0.00;;;15.10;99.90;;;;;;5038332;28;20044;-76
2022/05/24 13:04:19;;;;;;;0.20;0.20;;;15.30;99.90;;;;;;5024700;28;20052;-76
2022/05/24 13:06:48;;;;;;;0.10;0.10;;;15.10;99.90;;;;;;5028206;28;20052;-76
2022/05/24 13:09:16;;;;;;;0.03;0.03;;;14.60;99.90;;;;;;5042127;28;20084;-76
2022/05/24 13:11:45;;;;;;;0.00;0.00;;;14.30;99.90;;;;;;5033193;28;20033;-76
2022/05/24 13:14:20;;;;;;;0.30;0.17;;;14.10;99.90;;;;;;5035184;28;20844;-76
2022/05/24 13:16:46;;;;;;;0.15;0.15;;;14.00;99.90;;;;;;5042922;28;20139;-75
2022/05/24 13:19:12;;;;;;;0.10;0.10;;;13.80;99.90;;;;;;5033686;28;20039;-75
2022/05/24 13:21:37;;;;;;;0.13;0.13;;;13.90;99.90;;;;;;5042489;28;20164;-75
2022/05/24 13:24:15;;;;;;;3.72;1.60;;;13.80;99.90;;;;;;5043002;28;20029;-75
2022/05/24 13:27:01;;;;;;;0.00;0.00;;;13.90;99.90;;;;;;5032855;28;20040;-75
2022/05/24 13:29:29;;;;;;;0.05;0.05;;;14.00;99.90;;;;;;5020096;28;20103;-75
2022/05/24 13:34:58;;;;;;;0.10;0.10;;;13.80;99.90;;;;;;5043315;28;20033;-76
2022/05/24 13:37:27;;;;;;;0.10;0.10;;;13.80;99.90;;;;;;5033103;28;20546;-76
2022/05/24 13:39:56;;;;;;;0.13;0.13;;;13.70;99.90;;;;;;5043073;28;20060;-76
2022/05/24 13:42:26;;;;;;;0.10;0.10;;;13.50;99.90;;;;;;5042979;28;20489;-75
2022/05/24 13:45:19;;;;;;;0.10;0.10;;;13.60;99.90;;;;;;5016949;28;20647;-76
2022/05/24 13:47:50;;;;;;;0.10;0.10;;;13.50;99.90;;;;;;5008890;28;20025;-75
2022/05/24 13:50:41;;;;;;;0.20;0.20;;;13.60;99.90;;;;;;5044108;28;20036;-76
2022/05/24 13:53:37;;;;;;;0.10;0.10;;;13.80;99.90;;;;;;5032476;28;20033;-75
2022/05/24 13:56:06;;;;;;;0.28;0.28;;;14.00;99.90;;;;;;5032407;28;20033;-76
2022/05/24 13:58:35;;;;;;;0.10;0.10;;;13.90;99.90;;;;;;5042648;28;20033;-74
2022/05/24 14:01:20;;;;;;;0.10;0.10;;;13.80;99.90;;;;;;5034721;28;20021;-74